Liberal Mid-America Regional Airport
KLBL : now visible

Airfield :











YOU CAN JOIN US ON...

 
LOGIN :

Register | Disclaimer

   EN    FR    IT 

 









Legend :    VFR   Marginal VFR   IFR   Intensive IFR   Very Intensive IFR
Visi :
Ceiling :
>= 8 km
>= 3000ft
5 to 8 km
1000 to 3000 ft
1500m to 5 km
500 to 1000 ft
800 to 1500m
200 to 500 ft
< 800m
< 200 ft
Symbols :   Thunderstorms  Fog  Heavy snow  Heavy precipitations  Wind > 20 kt






- Airport Elevation : 2885 ft
- IATA code : LBL


KLBL - Liberal Mid-America Regional

CURRENT METAR :
  • 202156Z AUTO 02015G20KT 10SM CLR 37/16 A2973 RMK AO2 SLP027 T03670156

EXPIRED METARs :
  • 202056Z AUTO 03012G19KT 10SM CLR 38/14 A2973 RMK AO2 SLP027 T03780139 55002
  • 201956Z AUTO 02011G18KT 10SM CLR 38/15 A2972 RMK AO2 SLP022 T03830150

TAF KLBL
Valid from the 20 at 18:00 until the 21 at 18:00 UTC


201734Z 2018/2118 33008KT P6SM SKC
FM210400 04012G20KT P6SM FEW250
FM210800 04016KT P6SM VCTS SCT090CB
FM211100 03016KT P6SM BKN035
FM211200 03016KT P6SM BKN020
FM211700 03013KT P6SM BKN040
KZKC FIR / North America



MET'MAP, your aeronautical weather chart ! - Copyright ORBIFLY December 2007 - Disclaimer

ORBIFLY MET'MAP TEAM :

Programming & Development : Alexandra Zaïnal
Concept & original design : Baudouin d'Aumeries
Assistance for programming : Marc-Olivier Méhu
Technical & hardware support : Manuel Goepfert

Contact : metmap@orbifly.com




SOURCES & CREDITS :

   NOAA       Earth
Advisory